Terminal Aerodrome Forecast
Issued by NWS

Home | Current Version | Previous Version | Text Only | Print | Product List | Glossary On
Versions: 1 2 3 4 5 6 7 8 9 10 11 12 13 14 15 16 17
548
FTUS41 KBTV 132320
TAFMPV
TAF
KMPV 132320Z 1400/1424 33011G18KT 1 1/2SM -SN BKN017 OVC022
     FM140400 32011G22KT P6SM -SHSN SCT045
     FM141000 32010G21KT P6SM SCT150
     FM142200 31006KT P6SM FEW250=

USA.gov is the U.S. government's official web portal to all federal, state and local government web resources and services.